| Back to River Map | <<< Previous Forecast Point | | | Next Forecast Point >>> | Printer Version | Graph Version |  |
|
SALINAS RIVER - BRADLEY (BRDC1)
| Latitude: 35.93º N | Longitude: 120.87º W | Elevation: 443 Feet | | Forecast Type: Official Location |
| Location: Monterey County in California | Bulletin Group: Central Coast | River Group: Salinas/Pajaro |
| Issuance Time: | May 02 2026 at 8:57 AM PDT | Next Issuance: | May 03 2026 at 9:00 AM PDT
| |
| Action/Monitor: 12.0 Feet | Minor Flood: 14.0 Feet | Moderate Flood: 20.0 Feet | Major Flood: 22.0 Feet |
# Tabular Observed and Forecast Hydrograph Information
#
# Location: Salinas River - Bradley (BRDC1)
#
# File Generation Time: 05/02/2026 at 08:58 AM PDT
# Data Interval: 1 Hour
#
# Most Recent Date & Time of Maximum Observed: 05/02/2026 at 08:00 AM PDT
# Maximum Observed Stage: 3.57 Feet
# Maximum Observed Flow: 281 cfs
#
# Earliest Date & Time of Maximum Forecast: 05/02/2026 at 11:00 PM PDT
# Maximum Forecast Stage: 3.66 Feet
# Maximum Forecast Flow: 304 cfs
#
# OBSERVED
#
# Date & Time (Local) Stage (Feet) Flow (cfs) Trend Observed Status
# ---------------------------------------------------------------------------------
04/27/2026 08 AM PDT 3.38 235 Normal
04/27/2026 09 AM PDT 3.38 235 0 Normal
04/27/2026 10 AM PDT 3.38 235 0 Normal
04/27/2026 11 AM PDT 3.38 235 0 Normal
04/27/2026 12 PM PDT 3.39 237 + Normal
04/27/2026 01 PM PDT 3.38 235 - Normal
04/27/2026 02 PM PDT 3.38 235 0 Normal
04/27/2026 03 PM PDT 3.38 235 0 Normal
04/27/2026 04 PM PDT 3.38 235 0 Normal
04/27/2026 05 PM PDT 3.39 237 + Normal
04/27/2026 06 PM PDT 3.39 237 0 Normal
04/27/2026 07 PM PDT 3.38 235 - Normal
04/27/2026 08 PM PDT 3.38 235 0 Normal
04/27/2026 09 PM PDT 3.38 235 0 Normal
04/27/2026 10 PM PDT 3.38 235 0 Normal
04/27/2026 11 PM PDT 3.37 232 - Normal
04/28/2026 12 AM PDT 3.36 230 - Normal
04/28/2026 01 AM PDT 3.36 230 0 Normal
04/28/2026 02 AM PDT 3.37 232 + Normal
04/28/2026 03 AM PDT 3.37 232 0 Normal
04/28/2026 04 AM PDT 3.36 230 - Normal
04/28/2026 05 AM PDT 3.36 230 0 Normal
04/28/2026 06 AM PDT 3.37 232 + Normal
04/28/2026 07 AM PDT 3.37 232 0 Normal
04/28/2026 08 AM PDT 3.36 230 - Normal
04/28/2026 09 AM PDT 3.37 232 + Normal
04/28/2026 10 AM PDT 3.38 235 + Normal
04/28/2026 11 AM PDT 3.37 232 - Normal
04/28/2026 12 PM PDT 3.38 235 + Normal
04/28/2026 01 PM PDT 3.38 235 0 Normal
04/28/2026 02 PM PDT 3.38 235 0 Normal
04/28/2026 03 PM PDT 3.37 232 - Normal
04/28/2026 04 PM PDT 3.38 235 + Normal
04/28/2026 05 PM PDT 3.37 232 - Normal
04/28/2026 06 PM PDT 3.38 235 + Normal
04/28/2026 07 PM PDT 3.37 232 - Normal
04/28/2026 08 PM PDT 3.37 232 0 Normal
04/28/2026 09 PM PDT 3.37 232 0 Normal
04/28/2026 10 PM PDT 3.36 230 - Normal
04/28/2026 11 PM PDT 3.36 230 0 Normal
04/29/2026 12 AM PDT 3.37 232 + Normal
04/29/2026 01 AM PDT 3.36 230 - Normal
04/29/2026 02 AM PDT 3.36 230 0 Normal
04/29/2026 03 AM PDT 3.36 230 0 Normal
04/29/2026 04 AM PDT 3.37 232 + Normal
04/29/2026 05 AM PDT 3.36 230 - Normal
04/29/2026 06 AM PDT 3.36 230 0 Normal
04/29/2026 07 AM PDT 3.36 230 0 Normal
04/29/2026 08 AM PDT 3.36 230 0 Normal
04/29/2026 09 AM PDT 3.36 230 0 Normal
04/29/2026 10 AM PDT 3.36 230 0 Normal
04/29/2026 11 AM PDT 3.36 230 0 Normal
04/29/2026 12 PM PDT 3.37 232 + Normal
04/29/2026 01 PM PDT 3.36 230 - Normal
04/29/2026 02 PM PDT 3.36 230 0 Normal
04/29/2026 03 PM PDT 3.37 232 + Normal
04/29/2026 04 PM PDT 3.36 230 - Normal
04/29/2026 05 PM PDT 3.37 232 + Normal
04/29/2026 06 PM PDT 3.37 232 0 Normal
04/29/2026 07 PM PDT 3.37 232 0 Normal
04/29/2026 08 PM PDT 3.38 235 + Normal
04/29/2026 09 PM PDT 3.40 239 + Normal
04/29/2026 10 PM PDT 3.43 246 + Normal
04/29/2026 11 PM PDT 3.45 251 + Normal
04/30/2026 12 AM PDT 3.46 254 + Normal
04/30/2026 01 AM PDT 3.45 251 - Normal
04/30/2026 02 AM PDT 3.45 251 0 Normal
04/30/2026 03 AM PDT 3.45 251 0 Normal
04/30/2026 04 AM PDT 3.45 251 0 Normal
04/30/2026 05 AM PDT 3.45 251 0 Normal
04/30/2026 06 AM PDT 3.44 249 - Normal
04/30/2026 07 AM PDT 3.44 249 0 Normal
04/30/2026 08 AM PDT 3.45 251 + Normal
04/30/2026 09 AM PDT 3.45 251 0 Normal
04/30/2026 10 AM PDT 3.44 249 - Normal
04/30/2026 11 AM PDT 3.45 251 + Normal
04/30/2026 12 PM PDT 3.46 254 + Normal
04/30/2026 01 PM PDT 3.45 251 - Normal
04/30/2026 02 PM PDT 3.45 251 0 Normal
04/30/2026 03 PM PDT 3.46 254 + Normal
04/30/2026 04 PM PDT 3.45 251 - Normal
04/30/2026 05 PM PDT 3.45 251 0 Normal
04/30/2026 06 PM PDT 3.46 254 + Normal
04/30/2026 07 PM PDT 3.45 251 - Normal
04/30/2026 08 PM PDT 3.44 249 - Normal
04/30/2026 09 PM PDT 3.44 249 0 Normal
04/30/2026 10 PM PDT 3.43 246 - Normal
04/30/2026 11 PM PDT 3.44 249 + Normal
05/01/2026 12 AM PDT 3.44 249 0 Normal
05/01/2026 01 AM PDT 3.44 249 0 Normal
05/01/2026 02 AM PDT 3.43 246 - Normal
05/01/2026 03 AM PDT 3.42 244 - Normal
05/01/2026 04 AM PDT 3.43 246 + Normal
05/01/2026 05 AM PDT 3.44 249 + Normal
05/01/2026 06 AM PDT 3.44 249 0 Normal
05/01/2026 07 AM PDT 3.45 251 + Normal
05/01/2026 08 AM PDT 3.44 249 - Normal
05/01/2026 09 AM PDT 3.44 249 0 Normal
05/01/2026 10 AM PDT 3.44 249 0 Normal
05/01/2026 11 AM PDT 3.45 251 + Normal
05/01/2026 12 PM PDT 3.46 254 + Normal
05/01/2026 01 PM PDT 3.45 251 - Normal
05/01/2026 02 PM PDT 3.45 251 0 Normal
05/01/2026 03 PM PDT 3.45 251 0 Normal
05/01/2026 04 PM PDT 3.44 249 - Normal
05/01/2026 05 PM PDT 3.45 251 + Normal
05/01/2026 06 PM PDT 3.44 249 - Normal
05/01/2026 07 PM PDT 3.44 249 0 Normal
05/01/2026 08 PM PDT 3.44 249 0 Normal
05/01/2026 09 PM PDT 3.43 246 - Normal
05/01/2026 10 PM PDT 3.44 249 + Normal
05/01/2026 11 PM PDT 3.44 249 0 Normal
05/02/2026 12 AM PDT 3.43 246 - Normal
05/02/2026 01 AM PDT 3.44 249 + Normal
05/02/2026 02 AM PDT 3.45 251 + Normal
05/02/2026 03 AM PDT 3.47 256 + Normal
05/02/2026 04 AM PDT 3.50 263 + Normal
05/02/2026 05 AM PDT 3.52 268 + Normal
05/02/2026 06 AM PDT 3.53 271 + Normal
05/02/2026 07 AM PDT 3.55 276 + Normal
05/02/2026 08 AM PDT 3.57 281 + Normal
#
# FORECAST
#
# Date & Time (Local) Stage (Feet) Flow (cfs) Trend Forecast Status
# ---------------------------------------------------------------------------------
05/02/2026 09 AM PDT 3.59 286 Normal
05/02/2026 10 AM PDT 3.60 289 + Normal
05/02/2026 11 AM PDT 3.61 291 + Normal
05/02/2026 12 PM PDT 3.62 294 + Normal
05/02/2026 01 PM PDT 3.63 296 + Normal
05/02/2026 02 PM PDT 3.63 296 0 Normal
05/02/2026 03 PM PDT 3.64 299 + Normal
05/02/2026 04 PM PDT 3.64 299 0 Normal
05/02/2026 05 PM PDT 3.65 301 + Normal
05/02/2026 06 PM PDT 3.65 301 0 Normal
05/02/2026 07 PM PDT 3.65 301 0 Normal
05/02/2026 08 PM PDT 3.65 301 0 Normal
05/02/2026 09 PM PDT 3.65 301 0 Normal
05/02/2026 10 PM PDT 3.65 301 0 Normal
05/02/2026 11 PM PDT 3.66 304 + Normal
05/03/2026 12 AM PDT 3.66 304 0 Normal
05/03/2026 01 AM PDT 3.66 304 0 Normal
05/03/2026 02 AM PDT 3.66 304 0 Normal
05/03/2026 03 AM PDT 3.66 304 0 Normal
05/03/2026 04 AM PDT 3.66 304 0 Normal
05/03/2026 05 AM PDT 3.66 304 0 Normal
05/03/2026 06 AM PDT 3.66 304 0 Normal
05/03/2026 07 AM PDT 3.66 304 0 Normal
05/03/2026 08 AM PDT 3.66 304 0 Normal
05/03/2026 09 AM PDT 3.66 304 0 Normal
05/03/2026 10 AM PDT 3.66 304 0 Normal
05/03/2026 11 AM PDT 3.66 304 0 Normal
05/03/2026 12 PM PDT 3.66 304 0 Normal
05/03/2026 01 PM PDT 3.66 304 0 Normal
05/03/2026 02 PM PDT 3.66 304 0 Normal
05/03/2026 03 PM PDT 3.66 304 0 Normal
05/03/2026 04 PM PDT 3.66 304 0 Normal
05/03/2026 05 PM PDT 3.66 304 0 Normal
05/03/2026 06 PM PDT 3.66 304 0 Normal
05/03/2026 07 PM PDT 3.66 304 0 Normal
05/03/2026 08 PM PDT 3.66 304 0 Normal
05/03/2026 09 PM PDT 3.66 304 0 Normal
05/03/2026 10 PM PDT 3.66 304 0 Normal
05/03/2026 11 PM PDT 3.66 304 0 Normal
05/04/2026 12 AM PDT 3.66 304 0 Normal
05/04/2026 01 AM PDT 3.66 304 0 Normal
05/04/2026 02 AM PDT 3.66 304 0 Normal
05/04/2026 03 AM PDT 3.66 304 0 Normal
05/04/2026 04 AM PDT 3.66 304 0 Normal
05/04/2026 05 AM PDT 3.66 304 0 Normal
05/04/2026 06 AM PDT 3.66 304 0 Normal
05/04/2026 07 AM PDT 3.66 304 0 Normal
05/04/2026 08 AM PDT 3.66 304 0 Normal
05/04/2026 09 AM PDT 3.66 304 0 Normal
05/04/2026 10 AM PDT 3.66 304 0 Normal
05/04/2026 11 AM PDT 3.66 304 0 Normal
05/04/2026 12 PM PDT 3.66 304 0 Normal
05/04/2026 01 PM PDT 3.66 304 0 Normal
05/04/2026 02 PM PDT 3.66 304 0 Normal
05/04/2026 03 PM PDT 3.66 304 0 Normal
05/04/2026 04 PM PDT 3.66 304 0 Normal
05/04/2026 05 PM PDT 3.66 304 0 Normal
05/04/2026 06 PM PDT 3.66 304 0 Normal
05/04/2026 07 PM PDT 3.66 304 0 Normal
05/04/2026 08 PM PDT 3.66 304 0 Normal
05/04/2026 09 PM PDT 3.66 304 0 Normal
05/04/2026 10 PM PDT 3.66 304 0 Normal
05/04/2026 11 PM PDT 3.66 304 0 Normal
05/05/2026 12 AM PDT 3.66 304 0 Normal
05/05/2026 01 AM PDT 3.66 304 0 Normal
05/05/2026 02 AM PDT 3.66 304 0 Normal
05/05/2026 03 AM PDT 3.66 304 0 Normal
05/05/2026 04 AM PDT 3.66 304 0 Normal
05/05/2026 05 AM PDT 3.66 304 0 Normal
05/05/2026 06 AM PDT 3.66 304 0 Normal
05/05/2026 07 AM PDT 3.66 304 0 Normal
05/05/2026 08 AM PDT 3.66 304 0 Normal
05/05/2026 09 AM PDT 3.66 304 0 Normal
05/05/2026 10 AM PDT 3.66 304 0 Normal
05/05/2026 11 AM PDT 3.66 304 0 Normal
05/05/2026 12 PM PDT 3.66 304 0 Normal
05/05/2026 01 PM PDT 3.66 304 0 Normal
05/05/2026 02 PM PDT 3.66 304 0 Normal
05/05/2026 03 PM PDT 3.66 304 0 Normal
05/05/2026 04 PM PDT 3.66 304 0 Normal
05/05/2026 05 PM PDT 3.66 304 0 Normal
05/05/2026 06 PM PDT 3.66 304 0 Normal
05/05/2026 07 PM PDT 3.66 304 0 Normal
05/05/2026 08 PM PDT 3.66 304 0 Normal
05/05/2026 09 PM PDT 3.66 304 0 Normal
05/05/2026 10 PM PDT 3.66 304 0 Normal
05/05/2026 11 PM PDT 3.66 304 0 Normal
05/06/2026 12 AM PDT 3.66 304 0 Normal
05/06/2026 01 AM PDT 3.66 304 0 Normal
05/06/2026 02 AM PDT 3.66 304 0 Normal
05/06/2026 03 AM PDT 3.66 304 0 Normal
05/06/2026 04 AM PDT 3.66 304 0 Normal
05/06/2026 05 AM PDT 3.66 304 0 Normal
05/06/2026 06 AM PDT 3.66 304 0 Normal
05/06/2026 07 AM PDT 3.66 304 0 Normal
05/06/2026 08 AM PDT 3.66 304 0 Normal
05/06/2026 09 AM PDT 3.66 304 0 Normal
05/06/2026 10 AM PDT 3.66 304 0 Normal
05/06/2026 11 AM PDT 3.66 304 0 Normal
05/06/2026 12 PM PDT 3.66 304 0 Normal
05/06/2026 01 PM PDT 3.66 304 0 Normal
05/06/2026 02 PM PDT 3.66 304 0 Normal
05/06/2026 03 PM PDT 3.66 304 0 Normal
05/06/2026 04 PM PDT 3.66 304 0 Normal
05/06/2026 05 PM PDT 3.66 304 0 Normal
05/06/2026 06 PM PDT 3.66 304 0 Normal
05/06/2026 07 PM PDT 3.66 304 0 Normal
05/06/2026 08 PM PDT 3.66 304 0 Normal
05/06/2026 09 PM PDT 3.66 304 0 Normal
05/06/2026 10 PM PDT 3.66 304 0 Normal
05/06/2026 11 PM PDT 3.66 304 0 Normal
05/07/2026 12 AM PDT 3.66 304 0 Normal
05/07/2026 01 AM PDT 3.66 304 0 Normal
05/07/2026 02 AM PDT 3.66 304 0 Normal
05/07/2026 03 AM PDT 3.66 304 0 Normal
05/07/2026 04 AM PDT 3.66 304 0 Normal
05/07/2026 05 AM PDT 3.66 304 0 Normal
#
# NOTE 1: Stages are rounded to the nearest hundredth (.01) of a foot.
# NOTE 2: Flows are rounded to the nearest (1) cfs.
# NOTE 3: Trends are determined using hourly change in unrounded stage and flow.
# NOTE 4: Maximum Values are determined using unrounded stage and flow.
|